logo dgac
Miércoles 20 de Febrero del 2019
Buscar por aerodromo o helipuerto
Ingrese nombre de aeródromo, localidad o designador OACI:

Aeródromo: El Loa (PUB) (SCCF)

Ubicación: Calama, II Región, Chile (22º 30' 00'' S, 68º 54' 11'' W) Ver ubicación en el mapa

Pistas

Orientación Dimensión Pendiente Superficie Resistencia APCH THR RWY PAPI
10/28 3040 x 45 ASPH PCN 49 F/A/W/T No
Horas de operación H24
Elevación 2326 m / 7631 ft
Otra Información Adm : D.G.A.C.
Uso : PUB
Ubicado : 6 km SE Calama
TEL : (56)-55 234 2646

Otra información ver AIP-Chile Volumen I AD 3.9-3.1-C

CCCM/FCCV Descargar
andera de Chile
Mapa de El Loa (PUB) (SCCF)

Último METAR

METAR SCCF 201200Z 10012KT CAVOK 14/04 Q1027

Último TAF

TAF SCCF 201129Z 2012/2112 09010KT CAVOK TX25/2018Z TN10/2108Z BECMG 2014/2015 24004KT BECMG 2018/2020 26023KT SCT060 BECMG 2102/ 2104 25010KT BECMG 2105/2106 10010KT

Últimas fotos cámaras

Imagen aerodromo El Loa (PUB) (SCCF) Oeste tomada el 20-02-2019 09:28:31 Imagen aerodromo El Loa (PUB) (SCCF) Este tomada el 20-02-2019 09:29:16

Último NOTAM

B0161/19 NOTAMN Q)SCFZ/QCALT/IV/B/AE/000/999/2230S06854W080 A)SCCF B)1902091113 C)1905091100 E)ANTOFAGASTA APP FREQ 119.3 AND 120.9 MHZ LTD COVERAGE UNDER FL150 IN TMA CALAMA ALTN FREQ: CALAMA TWR 118.7 MHZ

LLegadas a El Loa (PUB) (SCCF)

En vuelo

Vuelo Procedencia Hora Despegue Local Hora Arribo Local
LXP348 Arturo Merino Benitez (INTL) (PUB) (SCEL) 08:28 10:09

Salidas de El Loa (PUB) (SCCF)

En vuelo